sensor_id;sensor_type;location;lat;lon;timestamp;temperature;humidity
22532;DHT22;11432;46.924;7.114;2023-04-03T00:01:32;7.90;99.90
22532;DHT22;11432;46.924;7.114;2023-04-03T00:03:57;7.90;99.90
22532;DHT22;11432;46.924;7.114;2023-04-03T00:06:24;7.90;99.90
22532;DHT22;11432;46.924;7.114;2023-04-03T00:08:50;7.90;99.90
22532;DHT22;11432;46.924;7.114;2023-04-03T00:11:17;7.90;99.90
22532;DHT22;11432;46.924;7.114;2023-04-03T00:13:42;7.90;99.90
22532;DHT22;11432;46.924;7.114;2023-04-03T00:16:10;7.90;99.90
22532;DHT22;11432;46.924;7.114;2023-04-03T00:18:36;8.00;99.90
22532;DHT22;11432;46.924;7.114;2023-04-03T00:21:02;8.00;99.90
22532;DHT22;11432;46.924;7.114;2023-04-03T00:23:28;8.00;99.90
22532;DHT22;11432;46.924;7.114;2023-04-03T00:25:53;8.00;99.90
22532;DHT22;11432;46.924;7.114;2023-04-03T00:28:20;8.00;99.90
22532;DHT22;11432;46.924;7.114;2023-04-03T00:30:48;7.90;99.90
22532;DHT22;11432;46.924;7.114;2023-04-03T00:33:14;7.90;99.90
22532;DHT22;11432;46.924;7.114;2023-04-03T00:35:40;7.90;99.90
22532;DHT22;11432;46.924;7.114;2023-04-03T00:38:06;7.90;99.90
22532;DHT22;11432;46.924;7.114;2023-04-03T00:40:37;7.90;99.90
22532;DHT22;11432;46.924;7.114;2023-04-03T00:43:13;7.90;99.90
22532;DHT22;11432;46.924;7.114;2023-04-03T00:45:41;7.90;99.90
22532;DHT22;11432;46.924;7.114;2023-04-03T00:48:11;7.90;99.90
22532;DHT22;11432;46.924;7.114;2023-04-03T00:50:40;7.90;99.90
22532;DHT22;11432;46.924;7.114;2023-04-03T00:53:09;7.90;99.90
22532;DHT22;11432;46.924;7.114;2023-04-03T00:55:38;7.90;99.90
22532;DHT22;11432;46.924;7.114;2023-04-03T00:58:05;7.90;99.90
22532;DHT22;11432;46.924;7.114;2023-04-03T01:00:32;7.90;99.90
22532;DHT22;11432;46.924;7.114;2023-04-03T01:02:59;7.90;99.90
22532;DHT22;11432;46.924;7.114;2023-04-03T01:05:25;7.90;99.90
22532;DHT22;11432;46.924;7.114;2023-04-03T01:07:52;7.90;99.90
22532;DHT22;11432;46.924;7.114;2023-04-03T01:10:19;7.90;99.90
22532;DHT22;11432;46.924;7.114;2023-04-03T01:12:47;7.90;99.90
22532;DHT22;11432;46.924;7.114;2023-04-03T01:15:17;8.00;99.90
22532;DHT22;11432;46.924;7.114;2023-04-03T01:17:49;8.00;99.90
22532;DHT22;11432;46.924;7.114;2023-04-03T01:25:32;7.90;99.90
22532;DHT22;11432;46.924;7.114;2023-04-03T01:27:57;7.90;99.90
22532;DHT22;11432;46.924;7.114;2023-04-03T01:30:30;7.90;99.90
22532;DHT22;11432;46.924;7.114;2023-04-03T01:32:56;7.90;99.90
22532;DHT22;11432;46.924;7.114;2023-04-03T01:35:21;7.80;99.90
22532;DHT22;11432;46.924;7.114;2023-04-03T01:37:47;7.80;99.90
22532;DHT22;11432;46.924;7.114;2023-04-03T01:40:12;7.80;99.90
22532;DHT22;11432;46.924;7.114;2023-04-03T01:42:38;7.80;99.90
22532;DHT22;11432;46.924;7.114;2023-04-03T01:45:04;7.80;99.90
22532;DHT22;11432;46.924;7.114;2023-04-03T01:47:30;7.70;99.90
22532;DHT22;11432;46.924;7.114;2023-04-03T01:49:56;7.80;99.90
22532;DHT22;11432;46.924;7.114;2023-04-03T01:52:21;7.70;99.90
22532;DHT22;11432;46.924;7.114;2023-04-03T01:54:47;7.70;99.90
22532;DHT22;11432;46.924;7.114;2023-04-03T01:57:12;7.60;99.90
22532;DHT22;11432;46.924;7.114;2023-04-03T01:59:40;7.60;99.90
22532;DHT22;11432;46.924;7.114;2023-04-03T02:02:06;7.70;99.90
22532;DHT22;11432;46.924;7.114;2023-04-03T02:04:32;7.60;99.90
22532;DHT22;11432;46.924;7.114;2023-04-03T02:06:58;7.70;99.90
22532;DHT22;11432;46.924;7.114;2023-04-03T02:09:23;7.60;99.90
22532;DHT22;11432;46.924;7.114;2023-04-03T02:11:49;7.60;99.90
22532;DHT22;11432;46.924;7.114;2023-04-03T02:14:15;7.70;99.90
22532;DHT22;11432;46.924;7.114;2023-04-03T02:16:40;7.60;99.90
22532;DHT22;11432;46.924;7.114;2023-04-03T02:19:06;7.60;99.90
22532;DHT22;11432;46.924;7.114;2023-04-03T02:21:31;7.60;99.90
22532;DHT22;11432;46.924;7.114;2023-04-03T02:23:57;7.70;99.90
22532;DHT22;11432;46.924;7.114;2023-04-03T02:26:23;7.70;99.90
22532;DHT22;11432;46.924;7.114;2023-04-03T02:28:48;7.70;99.90
22532;DHT22;11432;46.924;7.114;2023-04-03T02:31:14;7.70;99.90
22532;DHT22;11432;46.924;7.114;2023-04-03T02:33:40;7.60;99.90
22532;DHT22;11432;46.924;7.114;2023-04-03T02:36:07;7.60;99.90
22532;DHT22;11432;46.924;7.114;2023-04-03T02:38:33;7.60;99.90
22532;DHT22;11432;46.924;7.114;2023-04-03T02:41:07;7.60;99.90
22532;DHT22;11432;46.924;7.114;2023-04-03T02:43:34;7.60;99.90
22532;DHT22;11432;46.924;7.114;2023-04-03T02:45:59;7.60;99.90
22532;DHT22;11432;46.924;7.114;2023-04-03T02:48:25;7.60;99.90
22532;DHT22;11432;46.924;7.114;2023-04-03T02:50:51;7.60;99.90
22532;DHT22;11432;46.924;7.114;2023-04-03T02:53:17;7.50;99.90
22532;DHT22;11432;46.924;7.114;2023-04-03T02:55:44;7.50;99.90
22532;DHT22;11432;46.924;7.114;2023-04-03T02:58:10;7.50;99.90
22532;DHT22;11432;46.924;7.114;2023-04-03T03:00:36;7.40;99.90
22532;DHT22;11432;46.924;7.114;2023-04-03T03:03:02;7.40;99.90
22532;DHT22;11432;46.924;7.114;2023-04-03T03:05:28;7.30;99.90
22532;DHT22;11432;46.924;7.114;2023-04-03T03:07:54;7.30;99.90
22532;DHT22;11432;46.924;7.114;2023-04-03T03:10:20;7.30;99.90
22532;DHT22;11432;46.924;7.114;2023-04-03T03:12:45;7.30;99.90
22532;DHT22;11432;46.924;7.114;2023-04-03T03:15:11;7.20;99.90
22532;DHT22;11432;46.924;7.114;2023-04-03T03:17:37;7.10;99.90
22532;DHT22;11432;46.924;7.114;2023-04-03T03:20:04;7.10;99.90
22532;DHT22;11432;46.924;7.114;2023-04-03T03:22:30;7.10;99.90
22532;DHT22;11432;46.924;7.114;2023-04-03T03:24:56;7.10;99.90
22532;DHT22;11432;46.924;7.114;2023-04-03T03:27:21;7.10;99.90
22532;DHT22;11432;46.924;7.114;2023-04-03T03:29:47;7.10;99.90
22532;DHT22;11432;46.924;7.114;2023-04-03T03:32:13;7.10;99.90
22532;DHT22;11432;46.924;7.114;2023-04-03T03:34:38;7.00;99.90
22532;DHT22;11432;46.924;7.114;2023-04-03T03:37:04;7.00;99.90
22532;DHT22;11432;46.924;7.114;2023-04-03T03:39:30;7.00;99.90
22532;DHT22;11432;46.924;7.114;2023-04-03T03:41:56;7.00;99.90
22532;DHT22;11432;46.924;7.114;2023-04-03T03:44:22;7.00;99.90
22532;DHT22;11432;46.924;7.114;2023-04-03T03:46:48;6.90;99.90
22532;DHT22;11432;46.924;7.114;2023-04-03T03:49:13;6.90;99.90
22532;DHT22;11432;46.924;7.114;2023-04-03T03:51:39;6.90;99.90
22532;DHT22;11432;46.924;7.114;2023-04-03T03:54:06;6.80;99.90
22532;DHT22;11432;46.924;7.114;2023-04-03T03:56:32;6.80;99.90
22532;DHT22;11432;46.924;7.114;2023-04-03T03:58:57;6.70;99.90
22532;DHT22;11432;46.924;7.114;2023-04-03T04:01:23;6.70;99.90
22532;DHT22;11432;46.924;7.114;2023-04-03T04:03:49;6.70;99.90
22532;DHT22;11432;46.924;7.114;2023-04-03T04:06:15;6.70;99.90
22532;DHT22;11432;46.924;7.114;2023-04-03T04:08:41;6.80;99.90
22532;DHT22;11432;46.924;7.114;2023-04-03T04:11:07;6.80;99.90
22532;DHT22;11432;46.924;7.114;2023-04-03T04:13:33;6.70;99.90
22532;DHT22;11432;46.924;7.114;2023-04-03T04:15:59;6.70;99.90
22532;DHT22;11432;46.924;7.114;2023-04-03T04:18:25;6.60;99.90
22532;DHT22;11432;46.924;7.114;2023-04-03T04:20:50;6.60;99.90
22532;DHT22;11432;46.924;7.114;2023-04-03T04:23:17;6.60;99.90
22532;DHT22;11432;46.924;7.114;2023-04-03T04:25:48;6.50;99.90
22532;DHT22;11432;46.924;7.114;2023-04-03T04:28:14;6.50;99.90
22532;DHT22;11432;46.924;7.114;2023-04-03T04:30:40;6.40;99.90
22532;DHT22;11432;46.924;7.114;2023-04-03T04:33:06;6.40;99.90
22532;DHT22;11432;46.924;7.114;2023-04-03T04:35:32;6.40;99.90
22532;DHT22;11432;46.924;7.114;2023-04-03T04:37:58;6.30;99.90
22532;DHT22;11432;46.924;7.114;2023-04-03T04:40:24;6.30;99.90
22532;DHT22;11432;46.924;7.114;2023-04-03T04:42:50;6.30;99.90
22532;DHT22;11432;46.924;7.114;2023-04-03T04:45:15;6.30;99.90
22532;DHT22;11432;46.924;7.114;2023-04-03T04:47:41;6.30;99.90
22532;DHT22;11432;46.924;7.114;2023-04-03T04:50:08;6.20;99.90
22532;DHT22;11432;46.924;7.114;2023-04-03T04:52:33;6.20;99.90
22532;DHT22;11432;46.924;7.114;2023-04-03T04:54:59;6.20;99.90
22532;DHT22;11432;46.924;7.114;2023-04-03T04:57:25;6.10;99.90
22532;DHT22;11432;46.924;7.114;2023-04-03T04:59:51;6.00;99.90
22532;DHT22;11432;46.924;7.114;2023-04-03T05:02:16;6.00;99.90
22532;DHT22;11432;46.924;7.114;2023-04-03T05:04:42;6.00;99.90
22532;DHT22;11432;46.924;7.114;2023-04-03T05:07:08;6.10;99.90
22532;DHT22;11432;46.924;7.114;2023-04-03T05:09:34;6.10;99.90
22532;DHT22;11432;46.924;7.114;2023-04-03T05:11:59;6.10;99.90
22532;DHT22;11432;46.924;7.114;2023-04-03T05:14:25;6.10;99.90
22532;DHT22;11432;46.924;7.114;2023-04-03T05:16:51;6.00;99.90
22532;DHT22;11432;46.924;7.114;2023-04-03T05:19:20;6.00;99.90
22532;DHT22;11432;46.924;7.114;2023-04-03T05:21:46;6.00;99.90
22532;DHT22;11432;46.924;7.114;2023-04-03T05:24:12;5.90;99.90
22532;DHT22;11432;46.924;7.114;2023-04-03T05:26:37;5.90;99.90
22532;DHT22;11432;46.924;7.114;2023-04-03T05:29:03;6.00;99.90
22532;DHT22;11432;46.924;7.114;2023-04-03T05:31:29;6.00;99.90
22532;DHT22;11432;46.924;7.114;2023-04-03T05:33:55;5.90;99.90
22532;DHT22;11432;46.924;7.114;2023-04-03T05:36:21;5.90;99.90
22532;DHT22;11432;46.924;7.114;2023-04-03T05:38:47;5.90;99.90
22532;DHT22;11432;46.924;7.114;2023-04-03T05:41:14;5.90;99.90
22532;DHT22;11432;46.924;7.114;2023-04-03T05:43:39;5.90;99.90
22532;DHT22;11432;46.924;7.114;2023-04-03T05:46:11;5.90;99.90
22532;DHT22;11432;46.924;7.114;2023-04-03T05:48:37;5.90;99.90
22532;DHT22;11432;46.924;7.114;2023-04-03T05:51:03;5.80;99.90
22532;DHT22;11432;46.924;7.114;2023-04-03T05:53:31;5.80;99.90
22532;DHT22;11432;46.924;7.114;2023-04-03T05:55:58;5.90;99.90
22532;DHT22;11432;46.924;7.114;2023-04-03T05:58:24;5.90;99.90
22532;DHT22;11432;46.924;7.114;2023-04-03T06:00:49;5.70;99.90
22532;DHT22;11432;46.924;7.114;2023-04-03T06:03:15;5.70;99.90
22532;DHT22;11432;46.924;7.114;2023-04-03T06:05:42;5.70;99.90
22532;DHT22;11432;46.924;7.114;2023-04-03T06:08:07;5.60;99.90
22532;DHT22;11432;46.924;7.114;2023-04-03T06:10:34;5.60;99.90
22532;DHT22;11432;46.924;7.114;2023-04-03T06:13:00;5.60;99.90
22532;DHT22;11432;46.924;7.114;2023-04-03T06:15:26;5.70;99.90
22532;DHT22;11432;46.924;7.114;2023-04-03T06:17:52;5.60;99.90
22532;DHT22;11432;46.924;7.114;2023-04-03T06:20:18;5.70;99.90
22532;DHT22;11432;46.924;7.114;2023-04-03T06:22:43;5.60;99.90
22532;DHT22;11432;46.924;7.114;2023-04-03T06:25:09;5.60;99.90
22532;DHT22;11432;46.924;7.114;2023-04-03T06:27:35;5.50;99.90
22532;DHT22;11432;46.924;7.114;2023-04-03T06:30:01;5.50;99.90
22532;DHT22;11432;46.924;7.114;2023-04-03T06:32:26;5.50;99.90
22532;DHT22;11432;46.924;7.114;2023-04-03T06:34:52;5.50;99.90
22532;DHT22;11432;46.924;7.114;2023-04-03T06:37:20;5.50;99.90
22532;DHT22;11432;46.924;7.114;2023-04-03T06:39:47;5.40;99.90
22532;DHT22;11432;46.924;7.114;2023-04-03T06:42:12;5.40;99.90
22532;DHT22;11432;46.924;7.114;2023-04-03T06:44:38;5.50;99.90
22532;DHT22;11432;46.924;7.114;2023-04-03T06:47:05;5.40;89.00
22532;DHT22;11432;46.924;7.114;2023-04-03T06:49:30;5.40;92.40
22532;DHT22;11432;46.924;7.114;2023-04-03T06:51:56;5.50;54.10
22532;DHT22;11432;46.924;7.114;2023-04-03T06:54:22;5.40;45.90
22532;DHT22;11432;46.924;7.114;2023-04-03T06:56:48;5.50;56.00
22532;DHT22;11432;46.924;7.114;2023-04-03T06:59:14;5.50;43.10
22532;DHT22;11432;46.924;7.114;2023-04-03T07:01:40;5.50;60.10
22532;DHT22;11432;46.924;7.114;2023-04-03T07:04:07;5.40;40.50
22532;DHT22;11432;46.924;7.114;2023-04-03T07:06:34;5.40;81.00
22532;DHT22;11432;46.924;7.114;2023-04-03T07:09:00;5.40;67.10
22532;DHT22;11432;46.924;7.114;2023-04-03T07:11:26;5.50;91.70
22532;DHT22;11432;46.924;7.114;2023-04-03T07:13:52;5.40;72.30
22532;DHT22;11432;46.924;7.114;2023-04-03T07:16:19;5.40;62.50
22532;DHT22;11432;46.924;7.114;2023-04-03T07:18:45;5.30;63.90
22532;DHT22;11432;46.924;7.114;2023-04-03T07:21:11;5.40;54.80
22532;DHT22;11432;46.924;7.114;2023-04-03T07:23:37;5.40;41.60
22532;DHT22;11432;46.924;7.114;2023-04-03T07:26:03;5.50;10.40
22532;DHT22;11432;46.924;7.114;2023-04-03T07:28:29;5.50;20.70
22532;DHT22;11432;46.924;7.114;2023-04-03T07:31:06;5.60;21.60
22532;DHT22;11432;46.924;7.114;2023-04-03T07:33:34;5.50;26.80
22532;DHT22;11432;46.924;7.114;2023-04-03T07:36:00;5.60;18.00
22532;DHT22;11432;46.924;7.114;2023-04-03T07:38:26;5.60;21.50
22532;DHT22;11432;46.924;7.114;2023-04-03T07:40:52;5.70;1.00
22532;DHT22;11432;46.924;7.114;2023-04-03T07:43:19;5.70;1.00
22532;DHT22;11432;46.924;7.114;2023-04-03T07:45:45;5.70;1.00
22532;DHT22;11432;46.924;7.114;2023-04-03T07:48:13;5.70;1.00
22532;DHT22;11432;46.924;7.114;2023-04-03T07:50:41;5.70;1.00
22532;DHT22;11432;46.924;7.114;2023-04-03T07:53:07;5.60;1.00
22532;DHT22;11432;46.924;7.114;2023-04-03T07:55:33;5.70;1.00
22532;DHT22;11432;46.924;7.114;2023-04-03T07:57:59;5.70;1.00
22532;DHT22;11432;46.924;7.114;2023-04-03T08:00:25;5.70;1.00
22532;DHT22;11432;46.924;7.114;2023-04-03T08:02:51;5.60;1.00
22532;DHT22;11432;46.924;7.114;2023-04-03T08:05:21;5.70;1.00
22532;DHT22;11432;46.924;7.114;2023-04-03T08:07:47;5.80;1.00
22532;DHT22;11432;46.924;7.114;2023-04-03T08:10:13;5.80;1.00
22532;DHT22;11432;46.924;7.114;2023-04-03T08:12:40;5.90;1.00
22532;DHT22;11432;46.924;7.114;2023-04-03T08:15:06;6.10;1.00
22532;DHT22;11432;46.924;7.114;2023-04-03T08:17:33;6.10;1.00
22532;DHT22;11432;46.924;7.114;2023-04-03T08:19:59;6.20;1.00
22532;DHT22;11432;46.924;7.114;2023-04-03T08:22:25;6.40;1.00
22532;DHT22;11432;46.924;7.114;2023-04-03T08:24:51;6.50;1.00
22532;DHT22;11432;46.924;7.114;2023-04-03T08:27:17;6.40;1.00
22532;DHT22;11432;46.924;7.114;2023-04-03T08:29:42;6.30;1.00
22532;DHT22;11432;46.924;7.114;2023-04-03T08:32:08;6.30;1.00
22532;DHT22;11432;46.924;7.114;2023-04-03T08:34:34;6.60;1.00
22532;DHT22;11432;46.924;7.114;2023-04-03T08:37:00;6.80;1.00
22532;DHT22;11432;46.924;7.114;2023-04-03T08:39:27;7.00;24.10
22532;DHT22;11432;46.924;7.114;2023-04-03T08:41:55;6.90;64.00
22532;DHT22;11432;46.924;7.114;2023-04-03T08:45:10;7.10;35.90
22532;DHT22;11432;46.924;7.114;2023-04-03T08:47:38;7.20;54.60
22532;DHT22;11432;46.924;7.114;2023-04-03T08:50:11;7.10;90.00
22532;DHT22;11432;46.924;7.114;2023-04-03T08:55:25;7.10;47.40
22532;DHT22;11432;46.924;7.114;2023-04-03T08:58:05;7.30;21.30
22532;DHT22;11432;46.924;7.114;2023-04-03T09:03:19;7.30;45.40
22532;DHT22;11432;46.924;7.114;2023-04-03T09:06:00;7.40;44.70
22532;DHT22;11432;46.924;7.114;2023-04-03T09:08:34;7.60;60.50
22532;DHT22;11432;46.924;7.114;2023-04-03T09:11:30;7.70;56.90
22532;DHT22;11432;46.924;7.114;2023-04-03T09:16:58;8.20;59.50
22532;DHT22;11432;46.924;7.114;2023-04-03T09:19:35;8.40;69.30
22532;DHT22;11432;46.924;7.114;2023-04-03T09:22:20;8.50;77.60
22532;DHT22;11432;46.924;7.114;2023-04-03T09:24:52;8.50;71.50
22532;DHT22;11432;46.924;7.114;2023-04-03T09:27:21;8.30;85.70
22532;DHT22;11432;46.924;7.114;2023-04-03T09:29:47;8.70;84.30
22532;DHT22;11432;46.924;7.114;2023-04-03T09:32:33;8.60;89.00
22532;DHT22;11432;46.924;7.114;2023-04-03T09:35:47;8.50;85.40
22532;DHT22;11432;46.924;7.114;2023-04-03T09:37:54;8.20;88.60
22532;DHT22;11432;46.924;7.114;2023-04-03T09:43:55;8.70;81.40
22532;DHT22;11432;46.924;7.114;2023-04-03T09:48:51;9.20;93.70
22532;DHT22;11432;46.924;7.114;2023-04-03T09:51:17;8.60;72.00
22532;DHT22;11432;46.924;7.114;2023-04-03T09:53:44;8.50;74.90
22532;DHT22;11432;46.924;7.114;2023-04-03T09:58:47;8.70;68.30
22532;DHT22;11432;46.924;7.114;2023-04-03T10:01:32;8.70;75.50
22532;DHT22;11432;46.924;7.114;2023-04-03T10:04:10;8.70;85.40
22532;DHT22;11432;46.924;7.114;2023-04-03T10:06:39;8.60;93.70
22532;DHT22;11432;46.924;7.114;2023-04-03T10:09:25;8.30;97.80
22532;DHT22;11432;46.924;7.114;2023-04-03T10:12:10;8.20;87.10
22532;DHT22;11432;46.924;7.114;2023-04-03T10:14:38;8.30;73.10
22532;DHT22;11432;46.924;7.114;2023-04-03T10:17:16;8.30;77.70
22532;DHT22;11432;46.924;7.114;2023-04-03T10:19:45;8.30;78.90
22532;DHT22;11432;46.924;7.114;2023-04-03T10:22:56;8.10;99.90
22532;DHT22;11432;46.924;7.114;2023-04-03T10:25:40;8.10;99.90
22532;DHT22;11432;46.924;7.114;2023-04-03T10:28:27;8.20;99.90
22532;DHT22;11432;46.924;7.114;2023-04-03T10:31:25;8.20;99.90
22532;DHT22;11432;46.924;7.114;2023-04-03T10:45:21;9.10;99.90
22532;DHT22;11432;46.924;7.114;2023-04-03T10:47:58;9.50;99.90
22532;DHT22;11432;46.924;7.114;2023-04-03T10:53:26;9.20;99.90
22532;DHT22;11432;46.924;7.114;2023-04-03T10:56:22;9.30;99.90
22532;DHT22;11432;46.924;7.114;2023-04-03T10:59:21;9.40;99.90
22532;DHT22;11432;46.924;7.114;2023-04-03T11:01:52;9.60;99.90
22532;DHT22;11432;46.924;7.114;2023-04-03T11:04:20;9.50;99.90
22532;DHT22;11432;46.924;7.114;2023-04-03T11:07:12;9.60;99.90
22532;DHT22;11432;46.924;7.114;2023-04-03T11:09:42;9.20;99.90
22532;DHT22;11432;46.924;7.114;2023-04-03T11:12:23;8.80;99.90
22532;DHT22;11432;46.924;7.114;2023-04-03T11:14:51;8.60;99.90
22532;DHT22;11432;46.924;7.114;2023-04-03T11:20:01;8.50;99.90
22532;DHT22;11432;46.924;7.114;2023-04-03T11:22:28;8.90;99.90
22532;DHT22;11432;46.924;7.114;2023-04-03T11:25:06;9.20;99.90
22532;DHT22;11432;46.924;7.114;2023-04-03T11:27:45;9.30;99.90
22532;DHT22;11432;46.924;7.114;2023-04-03T11:30:25;9.60;99.90
22532;DHT22;11432;46.924;7.114;2023-04-03T11:33:18;9.90;99.90
22532;DHT22;11432;46.924;7.114;2023-04-03T11:35:57;9.90;99.90
22532;DHT22;11432;46.924;7.114;2023-04-03T11:38:31;10.10;99.90
22532;DHT22;11432;46.924;7.114;2023-04-03T11:41:00;10.30;99.90
22532;DHT22;11432;46.924;7.114;2023-04-03T11:43:28;10.20;99.90
22532;DHT22;11432;46.924;7.114;2023-04-03T11:46:00;10.80;99.90
22532;DHT22;11432;46.924;7.114;2023-04-03T11:51:02;11.40;99.90
22532;DHT22;11432;46.924;7.114;2023-04-03T11:53:48;11.70;99.90
22532;DHT22;11432;46.924;7.114;2023-04-03T12:04:20;12.10;99.90
22532;DHT22;11432;46.924;7.114;2023-04-03T12:12:38;12.50;99.70
22532;DHT22;11432;46.924;7.114;2023-04-03T12:17:48;13.80;95.30
22532;DHT22;11432;46.924;7.114;2023-04-03T12:20:52;13.40;95.40
22532;DHT22;11432;46.924;7.114;2023-04-03T12:26:04;13.80;93.30
22532;DHT22;11432;46.924;7.114;2023-04-03T12:28:37;13.10;94.40
22532;DHT22;11432;46.924;7.114;2023-04-03T12:31:04;12.30;95.00
22532;DHT22;11432;46.924;7.114;2023-04-03T12:33:46;11.80;95.90
22532;DHT22;11432;46.924;7.114;2023-04-03T12:36:45;12.00;97.20
22532;DHT22;11432;46.924;7.114;2023-04-03T12:39:41;12.90;95.80
22532;DHT22;11432;46.924;7.114;2023-04-03T12:47:35;14.00;91.70
22532;DHT22;11432;46.924;7.114;2023-04-03T12:50:15;13.00;93.60
22532;DHT22;11432;46.924;7.114;2023-04-03T12:52:45;13.80;93.30
22532;DHT22;11432;46.924;7.114;2023-04-03T12:55:16;14.20;93.50
22532;DHT22;11432;46.924;7.114;2023-04-03T12:57:43;14.40;91.80
22532;DHT22;11432;46.924;7.114;2023-04-03T13:02:52;14.20;91.10
22532;DHT22;11432;46.924;7.114;2023-04-03T13:05:19;14.00;90.80
22532;DHT22;11432;46.924;7.114;2023-04-03T13:07:49;13.60;91.80
22532;DHT22;11432;46.924;7.114;2023-04-03T13:10:18;13.00;90.30
22532;DHT22;11432;46.924;7.114;2023-04-03T13:15:20;13.00;93.60
22532;DHT22;11432;46.924;7.114;2023-04-03T13:17:46;12.70;96.50
22532;DHT22;11432;46.924;7.114;2023-04-03T13:20:23;13.50;92.50
22532;DHT22;11432;46.924;7.114;2023-04-03T13:22:59;14.00;92.30
22532;DHT22;11432;46.924;7.114;2023-04-03T13:25:28;14.20;93.50
22532;DHT22;11432;46.924;7.114;2023-04-03T13:27:55;14.20;89.30
22532;DHT22;11432;46.924;7.114;2023-04-03T13:32:50;12.80;93.90
22532;DHT22;11432;46.924;7.114;2023-04-03T13:37:56;12.90;93.00
22532;DHT22;11432;46.924;7.114;2023-04-03T13:40:23;13.20;89.80
22532;DHT22;11432;46.924;7.114;2023-04-03T13:43:00;12.70;91.80
22532;DHT22;11432;46.924;7.114;2023-04-03T13:45:30;14.20;90.20
22532;DHT22;11432;46.924;7.114;2023-04-03T13:48:18;13.10;87.60
22532;DHT22;11432;46.924;7.114;2023-04-03T13:53:25;12.40;91.90
22532;DHT22;11432;46.924;7.114;2023-04-03T13:56:19;12.60;89.10
22532;DHT22;11432;46.924;7.114;2023-04-03T14:01:34;13.30;88.20
22532;DHT22;11432;46.924;7.114;2023-04-03T14:04:14;14.20;83.60
22532;DHT22;11432;46.924;7.114;2023-04-03T14:06:40;12.50;85.40
22532;DHT22;11432;46.924;7.114;2023-04-03T14:09:06;11.90;90.70
22532;DHT22;11432;46.924;7.114;2023-04-03T14:11:31;11.90;90.50
22532;DHT22;11432;46.924;7.114;2023-04-03T14:14:01;11.80;90.40
22532;DHT22;11432;46.924;7.114;2023-04-03T14:16:32;11.30;91.50
22532;DHT22;11432;46.924;7.114;2023-04-03T14:18:58;11.10;93.70
22532;DHT22;11432;46.924;7.114;2023-04-03T14:21:24;10.70;93.00
22532;DHT22;11432;46.924;7.114;2023-04-03T14:23:50;10.40;92.90
22532;DHT22;11432;46.924;7.114;2023-04-03T14:26:19;11.10;90.90
22532;DHT22;11432;46.924;7.114;2023-04-03T14:28:47;11.60;92.10
22532;DHT22;11432;46.924;7.114;2023-04-03T14:31:15;10.80;93.10
22532;DHT22;11432;46.924;7.114;2023-04-03T14:33:41;11.00;93.40
22532;DHT22;11432;46.924;7.114;2023-04-03T14:36:14;10.70;93.70
22532;DHT22;11432;46.924;7.114;2023-04-03T14:38:41;10.30;94.40
22532;DHT22;11432;46.924;7.114;2023-04-03T14:41:07;10.10;96.20
22532;DHT22;11432;46.924;7.114;2023-04-03T14:43:32;10.00;96.10
22532;DHT22;11432;46.924;7.114;2023-04-03T14:45:58;9.30;96.50
22532;DHT22;11432;46.924;7.114;2023-04-03T14:48:26;9.60;97.20
22532;DHT22;11432;46.924;7.114;2023-04-03T14:50:53;10.90;94.60
22532;DHT22;11432;46.924;7.114;2023-04-03T14:53:20;11.70;92.50
22532;DHT22;11432;46.924;7.114;2023-04-03T14:55:50;11.00;94.50
22532;DHT22;11432;46.924;7.114;2023-04-03T14:58:18;11.30;95.10
22532;DHT22;11432;46.924;7.114;2023-04-03T15:00:44;11.30;92.80
22532;DHT22;11432;46.924;7.114;2023-04-03T15:03:16;10.60;94.10
22532;DHT22;11432;46.924;7.114;2023-04-03T15:05:45;10.40;94.80
22532;DHT22;11432;46.924;7.114;2023-04-03T15:08:23;10.10;94.30
22532;DHT22;11432;46.924;7.114;2023-04-03T15:10:51;9.50;94.90
22532;DHT22;11432;46.924;7.114;2023-04-03T15:13:19;9.60;95.80
22532;DHT22;11432;46.924;7.114;2023-04-03T15:15:45;9.30;94.90
22532;DHT22;11432;46.924;7.114;2023-04-03T15:18:18;10.80;91.50
22532;DHT22;11432;46.924;7.114;2023-04-03T15:20:44;12.30;89.00
22532;DHT22;11432;46.924;7.114;2023-04-03T15:23:15;11.50;90.00
22532;DHT22;11432;46.924;7.114;2023-04-03T15:25:43;10.40;93.10
22532;DHT22;11432;46.924;7.114;2023-04-03T15:30:47;9.60;95.60
22532;DHT22;11432;46.924;7.114;2023-04-03T15:33:13;9.30;97.20
22532;DHT22;11432;46.924;7.114;2023-04-03T15:35:38;9.10;97.40
22532;DHT22;11432;46.924;7.114;2023-04-03T15:38:04;8.90;97.70
22532;DHT22;11432;46.924;7.114;2023-04-03T15:40:30;8.70;98.40
22532;DHT22;11432;46.924;7.114;2023-04-03T15:42:55;8.50;99.70
22532;DHT22;11432;46.924;7.114;2023-04-03T15:45:21;9.10;99.90
22532;DHT22;11432;46.924;7.114;2023-04-03T15:47:47;8.80;99.90
22532;DHT22;11432;46.924;7.114;2023-04-03T15:50:13;9.50;99.90
22532;DHT22;11432;46.924;7.114;2023-04-03T15:52:38;9.20;99.90
22532;DHT22;11432;46.924;7.114;2023-04-03T15:55:05;8.80;99.90
22532;DHT22;11432;46.924;7.114;2023-04-03T15:57:31;8.40;99.90
22532;DHT22;11432;46.924;7.114;2023-04-03T15:59:57;8.30;99.90
22532;DHT22;11432;46.924;7.114;2023-04-03T16:02:23;8.20;99.90
22532;DHT22;11432;46.924;7.114;2023-04-03T16:04:53;8.30;99.90
22532;DHT22;11432;46.924;7.114;2023-04-03T16:07:19;8.20;99.90
22532;DHT22;11432;46.924;7.114;2023-04-03T16:09:44;8.20;99.90
22532;DHT22;11432;46.924;7.114;2023-04-03T16:12:10;8.10;99.90
22532;DHT22;11432;46.924;7.114;2023-04-03T16:14:36;9.80;95.90
22532;DHT22;11432;46.924;7.114;2023-04-03T16:17:02;10.90;93.10
22532;DHT22;11432;46.924;7.114;2023-04-03T16:19:29;10.40;90.70
22532;DHT22;11432;46.924;7.114;2023-04-03T16:21:55;9.30;92.40
22532;DHT22;11432;46.924;7.114;2023-04-03T16:24:21;8.40;94.70
22532;DHT22;11432;46.924;7.114;2023-04-03T16:26:46;8.20;96.60
22532;DHT22;11432;46.924;7.114;2023-04-03T16:29:12;8.10;96.80
22532;DHT22;11432;46.924;7.114;2023-04-03T16:31:38;7.90;98.10
22532;DHT22;11432;46.924;7.114;2023-04-03T16:34:03;8.00;99.90
22532;DHT22;11432;46.924;7.114;2023-04-03T16:36:29;7.90;99.90
22532;DHT22;11432;46.924;7.114;2023-04-03T16:38:55;7.80;99.90
22532;DHT22;11432;46.924;7.114;2023-04-03T16:41:21;7.80;99.90
22532;DHT22;11432;46.924;7.114;2023-04-03T16:43:46;7.80;99.90
22532;DHT22;11432;46.924;7.114;2023-04-03T16:46:12;7.60;99.90
22532;DHT22;11432;46.924;7.114;2023-04-03T16:48:37;7.50;99.90
22532;DHT22;11432;46.924;7.114;2023-04-03T16:51:03;7.30;99.90
22532;DHT22;11432;46.924;7.114;2023-04-03T16:53:29;7.30;1.00
22532;DHT22;11432;46.924;7.114;2023-04-03T16:55:57;7.30;1.00
22532;DHT22;11432;46.924;7.114;2023-04-03T16:58:22;7.20;1.00
22532;DHT22;11432;46.924;7.114;2023-04-03T17:00:48;7.20;1.00
22532;DHT22;11432;46.924;7.114;2023-04-03T17:03:14;7.20;1.00
22532;DHT22;11432;46.924;7.114;2023-04-03T17:05:39;7.20;1.00
22532;DHT22;11432;46.924;7.114;2023-04-03T17:08:05;7.20;1.00
22532;DHT22;11432;46.924;7.114;2023-04-03T17:10:30;7.10;1.00
22532;DHT22;11432;46.924;7.114;2023-04-03T17:12:56;7.10;1.00
22532;DHT22;11432;46.924;7.114;2023-04-03T17:15:22;7.90;1.00
22532;DHT22;11432;46.924;7.114;2023-04-03T17:17:49;7.50;1.00
22532;DHT22;11432;46.924;7.114;2023-04-03T17:20:16;7.20;1.00